Terminal Aerodrome Forecast
Issued by NWS Indianapolis, IN

Home | Current Version | Previous Version | Text Only | Print | Product List | Glossary On
Versions: 1 2 3 4 5 6 7 8 9 10 11 12 13 14 15 16 17 18 19 20 21 22 23 24 25 26 27
844
FTUS43 KIND 291218 AAC
TAFIND
TAF AMD
KIND 291218Z 2912/3018 09012KT P6SM OVC015
     FM291400 08009KT P6SM OVC020
     FM291500 08010KT P6SM BKN040
     FM291800 08010KT P6SM BKN070
     FM301400 12010KT P6SM -SHRA OVC080=

USA.gov is the U.S. government's official web portal to all federal, state and local government web resources and services.